National Weather Service Raw Text Product

Displaying AFOS PIL: TAFALO Received: 2018-07-12 17:21 UTC


199 
FTUS43 KDMX 121721
TAFALO
TAF
KALO 121721Z 1218/1318 18010KT P6SM SCT080
     FM130200 17007KT P6SM FEW250
     FM131300 16005KT P6SM BKN150=